sensor_id;sensor_type;location;lat;lon;timestamp;P1;durP1;ratioP1;P2;durP2;ratioP2
37843;SDS011;63793;57.632;18.292;2022-11-20T00:01:14;6.88;;;5.43;;
37843;SDS011;63793;57.632;18.292;2022-11-20T00:03:43;7.97;;;6.82;;
37843;SDS011;63793;57.632;18.292;2022-11-20T00:06:11;6.25;;;5.50;;
37843;SDS011;63793;57.632;18.292;2022-11-20T00:08:40;7.45;;;6.13;;
37843;SDS011;63793;57.632;18.292;2022-11-20T00:11:09;6.53;;;5.57;;
37843;SDS011;63793;57.632;18.292;2022-11-20T00:13:42;8.00;;;5.95;;
37843;SDS011;63793;57.632;18.292;2022-11-20T00:16:10;6.38;;;5.78;;
37843;SDS011;63793;57.632;18.292;2022-11-20T00:18:38;6.53;;;5.43;;
37843;SDS011;63793;57.632;18.292;2022-11-20T00:21:07;7.00;;;6.18;;
37843;SDS011;63793;57.632;18.292;2022-11-20T00:23:36;7.32;;;6.55;;
37843;SDS011;63793;57.632;18.292;2022-11-20T00:26:07;9.57;;;6.50;;
37843;SDS011;63793;57.632;18.292;2022-11-20T00:28:38;7.15;;;6.45;;
37843;SDS011;63793;57.632;18.292;2022-11-20T00:31:08;9.65;;;6.10;;
37843;SDS011;63793;57.632;18.292;2022-11-20T00:33:40;8.07;;;6.68;;
37843;SDS011;63793;57.632;18.292;2022-11-20T00:36:11;9.95;;;5.97;;
37843;SDS011;63793;57.632;18.292;2022-11-20T00:38:40;7.88;;;7.03;;
37843;SDS011;63793;57.632;18.292;2022-11-20T00:41:08;8.32;;;7.15;;
37843;SDS011;63793;57.632;18.292;2022-11-20T00:43:36;8.82;;;7.43;;
37843;SDS011;63793;57.632;18.292;2022-11-20T00:46:05;7.68;;;6.70;;
37843;SDS011;63793;57.632;18.292;2022-11-20T00:48:34;6.60;;;5.95;;
37843;SDS011;63793;57.632;18.292;2022-11-20T00:51:01;10.25;;;6.78;;
37843;SDS011;63793;57.632;18.292;2022-11-20T00:53:28;8.02;;;6.68;;
37843;SDS011;63793;57.632;18.292;2022-11-20T00:55:59;11.27;;;8.35;;
37843;SDS011;63793;57.632;18.292;2022-11-20T00:58:29;9.18;;;7.47;;
37843;SDS011;63793;57.632;18.292;2022-11-20T01:01:08;11.38;;;8.02;;
37843;SDS011;63793;57.632;18.292;2022-11-20T01:03:47;10.82;;;8.48;;
37843;SDS011;63793;57.632;18.292;2022-11-20T01:06:19;9.77;;;7.78;;
37843;SDS011;63793;57.632;18.292;2022-11-20T01:08:47;11.98;;;7.15;;
37843;SDS011;63793;57.632;18.292;2022-11-20T01:11:19;9.65;;;7.13;;
37843;SDS011;63793;57.632;18.292;2022-11-20T01:13:48;9.93;;;7.32;;
37843;SDS011;63793;57.632;18.292;2022-11-20T01:16:18;8.43;;;6.97;;
37843;SDS011;63793;57.632;18.292;2022-11-20T01:18:49;8.13;;;7.32;;
37843;SDS011;63793;57.632;18.292;2022-11-20T01:21:19;7.40;;;6.57;;
37843;SDS011;63793;57.632;18.292;2022-11-20T01:23:48;7.43;;;6.47;;
37843;SDS011;63793;57.632;18.292;2022-11-20T01:26:17;8.20;;;6.68;;
37843;SDS011;63793;57.632;18.292;2022-11-20T01:28:53;7.43;;;6.63;;
37843;SDS011;63793;57.632;18.292;2022-11-20T01:31:23;7.50;;;6.65;;
37843;SDS011;63793;57.632;18.292;2022-11-20T01:34:01;7.22;;;6.53;;
37843;SDS011;63793;57.632;18.292;2022-11-20T01:36:34;7.93;;;6.10;;
37843;SDS011;63793;57.632;18.292;2022-11-20T01:39:03;10.52;;;7.32;;
37843;SDS011;63793;57.632;18.292;2022-11-20T01:41:41;8.50;;;6.65;;
37843;SDS011;63793;57.632;18.292;2022-11-20T01:44:43;9.30;;;7.07;;
37843;SDS011;63793;57.632;18.292;2022-11-20T01:47:25;9.43;;;6.50;;
37843;SDS011;63793;57.632;18.292;2022-11-20T01:50:04;9.30;;;7.22;;
37843;SDS011;63793;57.632;18.292;2022-11-20T01:53:04;8.93;;;7.07;;
37843;SDS011;63793;57.632;18.292;2022-11-20T01:55:34;9.27;;;7.32;;
37843;SDS011;63793;57.632;18.292;2022-11-20T01:58:06;9.98;;;6.38;;
37843;SDS011;63793;57.632;18.292;2022-11-20T02:00:33;9.60;;;7.85;;
37843;SDS011;63793;57.632;18.292;2022-11-20T02:03:02;8.07;;;6.90;;
37843;SDS011;63793;57.632;18.292;2022-11-20T02:05:33;8.73;;;6.53;;
37843;SDS011;63793;57.632;18.292;2022-11-20T02:08:13;8.75;;;6.80;;
37843;SDS011;63793;57.632;18.292;2022-11-20T02:10:40;7.47;;;6.43;;
37843;SDS011;63793;57.632;18.292;2022-11-20T02:13:07;8.80;;;7.13;;
37843;SDS011;63793;57.632;18.292;2022-11-20T02:15:53;8.65;;;6.65;;
37843;SDS011;63793;57.632;18.292;2022-11-20T02:18:20;7.25;;;5.90;;
37843;SDS011;63793;57.632;18.292;2022-11-20T02:20:49;7.35;;;6.22;;
37843;SDS011;63793;57.632;18.292;2022-11-20T02:25:50;8.90;;;6.90;;
37843;SDS011;63793;57.632;18.292;2022-11-20T02:28:18;8.38;;;6.90;;
37843;SDS011;63793;57.632;18.292;2022-11-20T02:30:46;8.43;;;6.65;;
37843;SDS011;63793;57.632;18.292;2022-11-20T02:33:13;9.18;;;6.85;;
37843;SDS011;63793;57.632;18.292;2022-11-20T02:35:42;7.63;;;6.20;;
37843;SDS011;63793;57.632;18.292;2022-11-20T02:40:38;10.20;;;7.07;;
37843;SDS011;63793;57.632;18.292;2022-11-20T02:43:05;8.73;;;6.45;;
37843;SDS011;63793;57.632;18.292;2022-11-20T02:45:32;9.27;;;7.93;;
37843;SDS011;63793;57.632;18.292;2022-11-20T02:47:59;9.85;;;6.97;;
37843;SDS011;63793;57.632;18.292;2022-11-20T02:50:26;9.30;;;7.05;;
37843;SDS011;63793;57.632;18.292;2022-11-20T02:52:53;9.07;;;7.68;;
37843;SDS011;63793;57.632;18.292;2022-11-20T02:55:20;8.95;;;7.65;;
37843;SDS011;63793;57.632;18.292;2022-11-20T02:57:47;9.00;;;6.75;;
37843;SDS011;63793;57.632;18.292;2022-11-20T03:00:14;8.68;;;7.60;;
37843;SDS011;63793;57.632;18.292;2022-11-20T03:02:41;9.38;;;7.10;;
37843;SDS011;63793;57.632;18.292;2022-11-20T03:05:08;11.02;;;8.23;;
37843;SDS011;63793;57.632;18.292;2022-11-20T03:07:35;12.68;;;7.72;;
37843;SDS011;63793;57.632;18.292;2022-11-20T03:10:02;8.88;;;7.97;;
37843;SDS011;63793;57.632;18.292;2022-11-20T03:12:30;8.95;;;7.63;;
37843;SDS011;63793;57.632;18.292;2022-11-20T03:14:57;10.23;;;7.35;;
37843;SDS011;63793;57.632;18.292;2022-11-20T03:17:24;10.15;;;7.90;;
37843;SDS011;63793;57.632;18.292;2022-11-20T03:19:51;9.23;;;8.10;;
37843;SDS011;63793;57.632;18.292;2022-11-20T03:22:18;7.63;;;6.88;;
37843;SDS011;63793;57.632;18.292;2022-11-20T03:24:45;9.27;;;7.78;;
37843;SDS011;63793;57.632;18.292;2022-11-20T03:27:12;9.68;;;7.82;;
37843;SDS011;63793;57.632;18.292;2022-11-20T03:29:39;10.20;;;7.82;;
37843;SDS011;63793;57.632;18.292;2022-11-20T03:32:06;8.05;;;6.50;;
37843;SDS011;63793;57.632;18.292;2022-11-20T03:34:33;10.20;;;7.50;;
37843;SDS011;63793;57.632;18.292;2022-11-20T03:37:00;8.90;;;7.05;;
37843;SDS011;63793;57.632;18.292;2022-11-20T03:39:27;9.13;;;7.15;;
37843;SDS011;63793;57.632;18.292;2022-11-20T03:41:54;9.45;;;8.15;;
37843;SDS011;63793;57.632;18.292;2022-11-20T03:44:21;9.05;;;6.82;;
37843;SDS011;63793;57.632;18.292;2022-11-20T03:46:48;7.13;;;6.18;;
37843;SDS011;63793;57.632;18.292;2022-11-20T03:49:15;10.40;;;8.02;;
37843;SDS011;63793;57.632;18.292;2022-11-20T03:51:42;9.05;;;6.85;;
37843;SDS011;63793;57.632;18.292;2022-11-20T03:54:09;8.45;;;7.13;;
37843;SDS011;63793;57.632;18.292;2022-11-20T03:56:37;7.85;;;6.97;;
37843;SDS011;63793;57.632;18.292;2022-11-20T03:59:05;11.73;;;7.35;;
37843;SDS011;63793;57.632;18.292;2022-11-20T04:01:33;8.98;;;7.50;;
37843;SDS011;63793;57.632;18.292;2022-11-20T04:04:02;8.75;;;7.68;;
37843;SDS011;63793;57.632;18.292;2022-11-20T04:06:32;9.57;;;6.75;;
37843;SDS011;63793;57.632;18.292;2022-11-20T04:09:01;8.48;;;6.63;;
37843;SDS011;63793;57.632;18.292;2022-11-20T04:11:29;11.93;;;8.50;;
37843;SDS011;63793;57.632;18.292;2022-11-20T04:14:01;9.60;;;7.50;;
37843;SDS011;63793;57.632;18.292;2022-11-20T04:16:32;9.68;;;7.43;;
37843;SDS011;63793;57.632;18.292;2022-11-20T04:19:01;9.15;;;7.80;;
37843;SDS011;63793;57.632;18.292;2022-11-20T04:21:30;9.45;;;8.38;;
37843;SDS011;63793;57.632;18.292;2022-11-20T04:23:57;8.57;;;7.57;;
37843;SDS011;63793;57.632;18.292;2022-11-20T04:26:24;8.43;;;7.18;;
37843;SDS011;63793;57.632;18.292;2022-11-20T04:28:53;9.48;;;7.72;;
37843;SDS011;63793;57.632;18.292;2022-11-20T04:31:21;10.38;;;7.72;;
37843;SDS011;63793;57.632;18.292;2022-11-20T04:33:49;9.30;;;7.80;;
37843;SDS011;63793;57.632;18.292;2022-11-20T04:36:17;10.13;;;7.90;;
37843;SDS011;63793;57.632;18.292;2022-11-20T04:38:46;9.98;;;7.53;;
37843;SDS011;63793;57.632;18.292;2022-11-20T04:41:23;8.95;;;7.28;;
37843;SDS011;63793;57.632;18.292;2022-11-20T04:43:52;9.25;;;7.55;;
37843;SDS011;63793;57.632;18.292;2022-11-20T04:46:26;11.27;;;9.00;;
37843;SDS011;63793;57.632;18.292;2022-11-20T04:48:54;11.18;;;8.48;;
37843;SDS011;63793;57.632;18.292;2022-11-20T04:51:21;11.93;;;8.68;;
37843;SDS011;63793;57.632;18.292;2022-11-20T04:53:48;8.30;;;7.45;;
37843;SDS011;63793;57.632;18.292;2022-11-20T04:56:16;8.90;;;6.78;;
37843;SDS011;63793;57.632;18.292;2022-11-20T04:58:43;11.75;;;8.77;;
37843;SDS011;63793;57.632;18.292;2022-11-20T05:01:11;9.30;;;7.53;;
37843;SDS011;63793;57.632;18.292;2022-11-20T05:03:43;9.90;;;8.40;;
37843;SDS011;63793;57.632;18.292;2022-11-20T05:06:11;9.80;;;7.88;;
37843;SDS011;63793;57.632;18.292;2022-11-20T05:08:40;9.63;;;7.45;;
37843;SDS011;63793;57.632;18.292;2022-11-20T05:11:08;8.25;;;7.10;;
37843;SDS011;63793;57.632;18.292;2022-11-20T05:13:37;10.23;;;8.65;;
37843;SDS011;63793;57.632;18.292;2022-11-20T05:16:09;11.93;;;7.93;;
37843;SDS011;63793;57.632;18.292;2022-11-20T05:18:38;9.70;;;7.45;;
37843;SDS011;63793;57.632;18.292;2022-11-20T05:21:05;8.82;;;7.82;;
37843;SDS011;63793;57.632;18.292;2022-11-20T05:23:33;10.15;;;8.52;;
37843;SDS011;63793;57.632;18.292;2022-11-20T05:26:00;11.50;;;7.97;;
37843;SDS011;63793;57.632;18.292;2022-11-20T05:28:28;10.27;;;7.40;;
37843;SDS011;63793;57.632;18.292;2022-11-20T05:31:03;8.63;;;7.25;;
37843;SDS011;63793;57.632;18.292;2022-11-20T05:33:31;9.50;;;8.50;;
37843;SDS011;63793;57.632;18.292;2022-11-20T05:35:58;9.90;;;7.78;;
37843;SDS011;63793;57.632;18.292;2022-11-20T05:38:25;9.40;;;7.28;;
37843;SDS011;63793;57.632;18.292;2022-11-20T05:40:52;11.38;;;6.93;;
37843;SDS011;63793;57.632;18.292;2022-11-20T05:43:19;8.75;;;7.45;;
37843;SDS011;63793;57.632;18.292;2022-11-20T05:45:55;10.75;;;7.78;;
37843;SDS011;63793;57.632;18.292;2022-11-20T05:48:22;8.80;;;7.70;;
37843;SDS011;63793;57.632;18.292;2022-11-20T05:50:49;8.82;;;7.35;;
37843;SDS011;63793;57.632;18.292;2022-11-20T05:53:15;9.32;;;7.25;;
37843;SDS011;63793;57.632;18.292;2022-11-20T05:55:42;8.43;;;6.60;;
37843;SDS011;63793;57.632;18.292;2022-11-20T05:58:09;9.02;;;7.03;;
37843;SDS011;63793;57.632;18.292;2022-11-20T06:00:36;8.63;;;6.55;;
37843;SDS011;63793;57.632;18.292;2022-11-20T06:03:04;9.02;;;6.68;;
37843;SDS011;63793;57.632;18.292;2022-11-20T06:05:31;8.18;;;6.05;;
37843;SDS011;63793;57.632;18.292;2022-11-20T06:08:00;8.27;;;6.50;;
37843;SDS011;63793;57.632;18.292;2022-11-20T06:10:27;7.55;;;6.25;;
37843;SDS011;63793;57.632;18.292;2022-11-20T06:12:56;6.95;;;6.25;;
37843;SDS011;63793;57.632;18.292;2022-11-20T06:17:54;7.88;;;7.03;;
37843;SDS011;63793;57.632;18.292;2022-11-20T06:20:21;8.00;;;6.57;;
37843;SDS011;63793;57.632;18.292;2022-11-20T06:22:48;11.57;;;8.20;;
37843;SDS011;63793;57.632;18.292;2022-11-20T06:25:15;9.88;;;8.05;;
37843;SDS011;63793;57.632;18.292;2022-11-20T06:27:42;10.60;;;9.00;;
37843;SDS011;63793;57.632;18.292;2022-11-20T06:30:09;11.90;;;9.55;;
37843;SDS011;63793;57.632;18.292;2022-11-20T06:32:36;10.73;;;9.30;;
37843;SDS011;63793;57.632;18.292;2022-11-20T06:35:03;12.80;;;9.88;;
37843;SDS011;63793;57.632;18.292;2022-11-20T06:37:30;11.48;;;8.98;;
37843;SDS011;63793;57.632;18.292;2022-11-20T06:39:57;12.77;;;9.35;;
37843;SDS011;63793;57.632;18.292;2022-11-20T06:42:24;14.35;;;10.13;;
37843;SDS011;63793;57.632;18.292;2022-11-20T06:44:51;13.93;;;10.20;;
37843;SDS011;63793;57.632;18.292;2022-11-20T06:47:18;11.02;;;8.50;;
37843;SDS011;63793;57.632;18.292;2022-11-20T06:49:45;11.43;;;8.32;;
37843;SDS011;63793;57.632;18.292;2022-11-20T06:52:15;11.60;;;9.05;;
37843;SDS011;63793;57.632;18.292;2022-11-20T06:54:42;10.32;;;9.10;;
37843;SDS011;63793;57.632;18.292;2022-11-20T06:57:09;10.45;;;7.65;;
37843;SDS011;63793;57.632;18.292;2022-11-20T06:59:36;9.38;;;7.90;;
37843;SDS011;63793;57.632;18.292;2022-11-20T07:02:02;9.70;;;7.68;;
37843;SDS011;63793;57.632;18.292;2022-11-20T07:04:29;9.07;;;8.13;;
37843;SDS011;63793;57.632;18.292;2022-11-20T07:06:56;9.60;;;7.40;;
37843;SDS011;63793;57.632;18.292;2022-11-20T07:09:23;8.27;;;7.13;;
37843;SDS011;63793;57.632;18.292;2022-11-20T07:11:50;10.35;;;8.63;;
37843;SDS011;63793;57.632;18.292;2022-11-20T07:14:17;10.13;;;8.68;;
37843;SDS011;63793;57.632;18.292;2022-11-20T07:16:44;9.20;;;8.15;;
37843;SDS011;63793;57.632;18.292;2022-11-20T07:19:11;9.05;;;8.13;;
37843;SDS011;63793;57.632;18.292;2022-11-20T07:21:39;8.20;;;7.18;;
37843;SDS011;63793;57.632;18.292;2022-11-20T07:24:06;10.02;;;8.32;;
37843;SDS011;63793;57.632;18.292;2022-11-20T07:26:33;10.65;;;8.57;;
37843;SDS011;63793;57.632;18.292;2022-11-20T07:29:00;10.65;;;8.57;;
37843;SDS011;63793;57.632;18.292;2022-11-20T07:31:27;15.82;;;11.10;;
37843;SDS011;63793;57.632;18.292;2022-11-20T07:33:53;16.08;;;12.57;;
37843;SDS011;63793;57.632;18.292;2022-11-20T07:36:20;20.88;;;13.20;;
37843;SDS011;63793;57.632;18.292;2022-11-20T07:38:47;14.60;;;12.38;;
37843;SDS011;63793;57.632;18.292;2022-11-20T07:41:14;16.65;;;12.43;;
37843;SDS011;63793;57.632;18.292;2022-11-20T07:43:41;20.15;;;15.27;;
37843;SDS011;63793;57.632;18.292;2022-11-20T07:46:08;16.70;;;14.40;;
37843;SDS011;63793;57.632;18.292;2022-11-20T07:48:35;19.77;;;14.55;;
37843;SDS011;63793;57.632;18.292;2022-11-20T07:51:02;18.20;;;15.32;;
37843;SDS011;63793;57.632;18.292;2022-11-20T07:53:29;16.20;;;13.55;;
37843;SDS011;63793;57.632;18.292;2022-11-20T07:55:59;13.55;;;11.40;;
37843;SDS011;63793;57.632;18.292;2022-11-20T07:58:28;13.82;;;10.65;;
37843;SDS011;63793;57.632;18.292;2022-11-20T08:00:56;11.13;;;9.13;;
37843;SDS011;63793;57.632;18.292;2022-11-20T08:03:23;13.07;;;10.23;;
37843;SDS011;63793;57.632;18.292;2022-11-20T08:05:51;16.17;;;9.90;;
37843;SDS011;63793;57.632;18.292;2022-11-20T08:08:18;12.77;;;9.88;;
37843;SDS011;63793;57.632;18.292;2022-11-20T08:10:45;11.77;;;8.70;;
37843;SDS011;63793;57.632;18.292;2022-11-20T08:13:12;13.15;;;10.07;;
37843;SDS011;63793;57.632;18.292;2022-11-20T08:15:58;11.15;;;8.18;;
37843;SDS011;63793;57.632;18.292;2022-11-20T08:18:25;12.43;;;8.93;;
37843;SDS011;63793;57.632;18.292;2022-11-20T08:20:57;12.50;;;9.13;;
37843;SDS011;63793;57.632;18.292;2022-11-20T08:23:28;12.35;;;10.55;;
37843;SDS011;63793;57.632;18.292;2022-11-20T08:25:55;11.43;;;9.20;;
37843;SDS011;63793;57.632;18.292;2022-11-20T08:28:22;13.18;;;10.45;;
37843;SDS011;63793;57.632;18.292;2022-11-20T08:30:49;14.10;;;11.55;;
37843;SDS011;63793;57.632;18.292;2022-11-20T08:33:17;13.57;;;10.60;;
37843;SDS011;63793;57.632;18.292;2022-11-20T08:35:44;15.90;;;11.88;;
37843;SDS011;63793;57.632;18.292;2022-11-20T08:38:11;12.35;;;10.05;;
37843;SDS011;63793;57.632;18.292;2022-11-20T08:40:38;14.02;;;11.38;;
37843;SDS011;63793;57.632;18.292;2022-11-20T08:43:05;11.55;;;8.93;;
37843;SDS011;63793;57.632;18.292;2022-11-20T08:45:32;10.35;;;8.73;;
37843;SDS011;63793;57.632;18.292;2022-11-20T08:48:01;12.27;;;9.50;;
37843;SDS011;63793;57.632;18.292;2022-11-20T08:50:29;14.60;;;10.80;;
37843;SDS011;63793;57.632;18.292;2022-11-20T08:53:05;18.73;;;11.25;;
37843;SDS011;63793;57.632;18.292;2022-11-20T08:55:32;16.33;;;12.38;;
37843;SDS011;63793;57.632;18.292;2022-11-20T08:58:04;10.75;;;8.18;;
37843;SDS011;63793;57.632;18.292;2022-11-20T09:00:32;13.40;;;10.48;;
37843;SDS011;63793;57.632;18.292;2022-11-20T09:03:00;13.55;;;10.85;;
37843;SDS011;63793;57.632;18.292;2022-11-20T09:05:28;10.73;;;9.63;;
37843;SDS011;63793;57.632;18.292;2022-11-20T09:07:56;11.45;;;9.73;;
37843;SDS011;63793;57.632;18.292;2022-11-20T09:10:23;11.43;;;9.50;;
37843;SDS011;63793;57.632;18.292;2022-11-20T09:12:53;12.85;;;9.73;;
37843;SDS011;63793;57.632;18.292;2022-11-20T09:15:24;10.80;;;9.73;;
37843;SDS011;63793;57.632;18.292;2022-11-20T09:20:19;12.75;;;11.18;;
37843;SDS011;63793;57.632;18.292;2022-11-20T09:22:46;16.00;;;13.88;;
37843;SDS011;63793;57.632;18.292;2022-11-20T09:25:13;13.38;;;10.70;;
37843;SDS011;63793;57.632;18.292;2022-11-20T09:27:40;15.10;;;10.68;;
37843;SDS011;63793;57.632;18.292;2022-11-20T09:30:10;12.52;;;10.85;;
37843;SDS011;63793;57.632;18.292;2022-11-20T09:32:40;14.27;;;10.98;;
37843;SDS011;63793;57.632;18.292;2022-11-20T09:35:11;16.83;;;10.85;;
37843;SDS011;63793;57.632;18.292;2022-11-20T09:37:38;14.25;;;9.30;;
37843;SDS011;63793;57.632;18.292;2022-11-20T09:40:05;12.80;;;10.05;;
37843;SDS011;63793;57.632;18.292;2022-11-20T09:42:45;10.68;;;9.52;;
37843;SDS011;63793;57.632;18.292;2022-11-20T09:45:23;11.13;;;8.55;;
37843;SDS011;63793;57.632;18.292;2022-11-20T09:48:44;10.73;;;8.55;;
37843;SDS011;63793;57.632;18.292;2022-11-20T09:53:52;20.42;;;13.27;;
37843;SDS011;63793;57.632;18.292;2022-11-20T09:56:22;57.70;;;29.40;;
37843;SDS011;63793;57.632;18.292;2022-11-20T09:58:51;60.13;;;28.33;;
37843;SDS011;63793;57.632;18.292;2022-11-20T10:01:21;45.50;;;24.10;;
37843;SDS011;63793;57.632;18.292;2022-11-20T10:03:54;30.45;;;15.85;;
37843;SDS011;63793;57.632;18.292;2022-11-20T10:06:39;33.33;;;17.50;;
37843;SDS011;63793;57.632;18.292;2022-11-20T10:09:42;60.17;;;28.52;;
37843;SDS011;63793;57.632;18.292;2022-11-20T10:12:27;37.67;;;19.88;;
37843;SDS011;63793;57.632;18.292;2022-11-20T10:15:15;30.23;;;16.65;;
37843;SDS011;63793;57.632;18.292;2022-11-20T10:23:45;23.38;;;14.63;;
37843;SDS011;63793;57.632;18.292;2022-11-20T10:31:33;42.78;;;26.02;;
37843;SDS011;63793;57.632;18.292;2022-11-20T10:34:12;23.38;;;15.07;;
37843;SDS011;63793;57.632;18.292;2022-11-20T10:37:31;43.30;;;24.40;;
37843;SDS011;63793;57.632;18.292;2022-11-20T10:39:57;87.55;;;44.80;;
37843;SDS011;63793;57.632;18.292;2022-11-20T10:42:47;65.32;;;33.40;;
37843;SDS011;63793;57.632;18.292;2022-11-20T10:48:07;20.45;;;14.60;;
37843;SDS011;63793;57.632;18.292;2022-11-20T10:50:40;21.50;;;15.55;;
37843;SDS011;63793;57.632;18.292;2022-11-20T10:53:31;18.38;;;14.00;;
37843;SDS011;63793;57.632;18.292;2022-11-20T11:04:47;15.85;;;12.77;;
37843;SDS011;63793;57.632;18.292;2022-11-20T11:07:23;17.30;;;13.20;;
37843;SDS011;63793;57.632;18.292;2022-11-20T11:10:00;15.40;;;13.05;;
37843;SDS011;63793;57.632;18.292;2022-11-20T11:12:28;17.58;;;13.27;;
37843;SDS011;63793;57.632;18.292;2022-11-20T11:14:56;16.48;;;13.80;;
37843;SDS011;63793;57.632;18.292;2022-11-20T11:17:25;19.48;;;13.95;;
37843;SDS011;63793;57.632;18.292;2022-11-20T11:22:44;23.48;;;17.20;;
37843;SDS011;63793;57.632;18.292;2022-11-20T11:27:52;22.13;;;13.82;;
37843;SDS011;63793;57.632;18.292;2022-11-20T11:30:21;24.30;;;14.63;;
37843;SDS011;63793;57.632;18.292;2022-11-20T11:33:03;29.00;;;15.15;;
37843;SDS011;63793;57.632;18.292;2022-11-20T11:35:32;21.42;;;14.35;;
37843;SDS011;63793;57.632;18.292;2022-11-20T11:38:12;24.58;;;16.20;;
37843;SDS011;63793;57.632;18.292;2022-11-20T11:40:43;20.25;;;13.18;;
37843;SDS011;63793;57.632;18.292;2022-11-20T11:46:34;17.75;;;13.20;;
37843;SDS011;63793;57.632;18.292;2022-11-20T11:51:50;15.55;;;11.93;;
37843;SDS011;63793;57.632;18.292;2022-11-20T11:54:30;10.90;;;8.80;;
37843;SDS011;63793;57.632;18.292;2022-11-20T11:57:40;12.73;;;11.38;;
37843;SDS011;63793;57.632;18.292;2022-11-20T12:00:20;16.33;;;13.32;;
37843;SDS011;63793;57.632;18.292;2022-11-20T12:02:52;13.85;;;11.98;;
37843;SDS011;63793;57.632;18.292;2022-11-20T12:05:38;9.70;;;8.57;;
37843;SDS011;63793;57.632;18.292;2022-11-20T12:14:22;9.40;;;8.50;;
37843;SDS011;63793;57.632;18.292;2022-11-20T12:17:04;11.00;;;9.93;;
37843;SDS011;63793;57.632;18.292;2022-11-20T12:19:31;10.07;;;8.95;;
37843;SDS011;63793;57.632;18.292;2022-11-20T12:30:11;11.57;;;7.75;;
37843;SDS011;63793;57.632;18.292;2022-11-20T12:57:09;7.70;;;7.00;;
37843;SDS011;63793;57.632;18.292;2022-11-20T13:00:01;10.40;;;7.82;;
37843;SDS011;63793;57.632;18.292;2022-11-20T13:02:41;7.73;;;6.93;;
37843;SDS011;63793;57.632;18.292;2022-11-20T13:08:01;12.02;;;8.68;;
37843;SDS011;63793;57.632;18.292;2022-11-20T13:14:07;11.52;;;8.40;;
37843;SDS011;63793;57.632;18.292;2022-11-20T13:16:24;13.98;;;10.25;;
37843;SDS011;63793;57.632;18.292;2022-11-20T13:18:55;11.40;;;8.52;;
37843;SDS011;63793;57.632;18.292;2022-11-20T13:21:36;13.50;;;9.40;;
37843;SDS011;63793;57.632;18.292;2022-11-20T13:27:00;14.20;;;9.23;;
37843;SDS011;63793;57.632;18.292;2022-11-20T13:29:44;14.82;;;12.13;;
37843;SDS011;63793;57.632;18.292;2022-11-20T13:35:03;12.57;;;8.02;;
37843;SDS011;63793;57.632;18.292;2022-11-20T13:37:37;10.57;;;7.72;;
37843;SDS011;63793;57.632;18.292;2022-11-20T13:40:05;10.05;;;7.43;;
37843;SDS011;63793;57.632;18.292;2022-11-20T13:42:37;8.60;;;7.70;;
37843;SDS011;63793;57.632;18.292;2022-11-20T13:45:23;12.43;;;9.77;;
37843;SDS011;63793;57.632;18.292;2022-11-20T13:47:55;9.77;;;8.57;;
37843;SDS011;63793;57.632;18.292;2022-11-20T13:50:31;11.55;;;9.05;;
37843;SDS011;63793;57.632;18.292;2022-11-20T13:53:33;12.25;;;8.77;;
37843;SDS011;63793;57.632;18.292;2022-11-20T13:56:09;9.88;;;7.07;;
37843;SDS011;63793;57.632;18.292;2022-11-20T14:01:54;9.85;;;6.78;;
37843;SDS011;63793;57.632;18.292;2022-11-20T14:04:33;8.15;;;6.50;;
37843;SDS011;63793;57.632;18.292;2022-11-20T14:07:04;7.63;;;5.88;;
37843;SDS011;63793;57.632;18.292;2022-11-20T14:09:33;6.50;;;5.25;;
37843;SDS011;63793;57.632;18.292;2022-11-20T14:12:01;6.57;;;5.05;;
37843;SDS011;63793;57.632;18.292;2022-11-20T14:14:30;5.03;;;4.32;;
37843;SDS011;63793;57.632;18.292;2022-11-20T14:17:06;4.13;;;3.70;;
37843;SDS011;63793;57.632;18.292;2022-11-20T14:19:48;5.70;;;4.40;;
37843;SDS011;63793;57.632;18.292;2022-11-20T14:25:05;6.80;;;4.63;;
37843;SDS011;63793;57.632;18.292;2022-11-20T14:27:50;4.40;;;4.00;;
37843;SDS011;63793;57.632;18.292;2022-11-20T14:30:26;5.07;;;4.55;;
37843;SDS011;63793;57.632;18.292;2022-11-20T14:33:12;5.90;;;4.80;;
37843;SDS011;63793;57.632;18.292;2022-11-20T14:36:01;7.68;;;6.60;;
37843;SDS011;63793;57.632;18.292;2022-11-20T14:38:27;15.07;;;11.32;;
37843;SDS011;63793;57.632;18.292;2022-11-20T14:41:05;17.65;;;14.57;;
37843;SDS011;63793;57.632;18.292;2022-11-20T14:43:35;14.45;;;10.15;;
37843;SDS011;63793;57.632;18.292;2022-11-20T14:46:05;12.68;;;10.80;;
37843;SDS011;63793;57.632;18.292;2022-11-20T14:51:10;11.93;;;9.85;;
37843;SDS011;63793;57.632;18.292;2022-11-20T14:53:38;10.43;;;8.27;;
37843;SDS011;63793;57.632;18.292;2022-11-20T14:56:05;11.40;;;9.43;;
37843;SDS011;63793;57.632;18.292;2022-11-20T14:58:33;12.43;;;8.75;;
37843;SDS011;63793;57.632;18.292;2022-11-20T15:01:01;12.65;;;9.57;;
37843;SDS011;63793;57.632;18.292;2022-11-20T15:03:31;11.88;;;10.15;;
37843;SDS011;63793;57.632;18.292;2022-11-20T15:05:58;13.30;;;10.32;;
37843;SDS011;63793;57.632;18.292;2022-11-20T15:08:26;10.77;;;9.45;;
37843;SDS011;63793;57.632;18.292;2022-11-20T15:10:53;13.00;;;10.43;;
37843;SDS011;63793;57.632;18.292;2022-11-20T15:13:31;13.77;;;10.98;;
37843;SDS011;63793;57.632;18.292;2022-11-20T15:16:03;13.95;;;10.90;;
37843;SDS011;63793;57.632;18.292;2022-11-20T15:18:40;12.63;;;10.45;;
37843;SDS011;63793;57.632;18.292;2022-11-20T15:21:11;13.45;;;10.02;;
37843;SDS011;63793;57.632;18.292;2022-11-20T15:23:40;14.00;;;10.55;;
37843;SDS011;63793;57.632;18.292;2022-11-20T15:26:07;11.57;;;10.20;;
37843;SDS011;63793;57.632;18.292;2022-11-20T15:28:42;12.38;;;10.48;;
37843;SDS011;63793;57.632;18.292;2022-11-20T15:31:14;14.05;;;12.57;;
37843;SDS011;63793;57.632;18.292;2022-11-20T15:33:43;14.35;;;9.63;;
37843;SDS011;63793;57.632;18.292;2022-11-20T15:36:10;13.38;;;8.73;;
37843;SDS011;63793;57.632;18.292;2022-11-20T15:38:37;10.40;;;9.27;;
37843;SDS011;63793;57.632;18.292;2022-11-20T15:41:04;15.80;;;9.82;;
37843;SDS011;63793;57.632;18.292;2022-11-20T15:43:31;10.35;;;9.23;;
37843;SDS011;63793;57.632;18.292;2022-11-20T15:45:59;13.52;;;9.32;;
37843;SDS011;63793;57.632;18.292;2022-11-20T15:48:33;11.35;;;8.57;;
37843;SDS011;63793;57.632;18.292;2022-11-20T15:53:38;10.73;;;8.25;;
37843;SDS011;63793;57.632;18.292;2022-11-20T15:56:12;12.40;;;10.10;;
37843;SDS011;63793;57.632;18.292;2022-11-20T15:58:41;15.63;;;12.15;;
37843;SDS011;63793;57.632;18.292;2022-11-20T16:01:11;17.20;;;11.82;;
37843;SDS011;63793;57.632;18.292;2022-11-20T16:03:41;14.40;;;11.20;;
37843;SDS011;63793;57.632;18.292;2022-11-20T16:06:08;11.80;;;10.60;;
37843;SDS011;63793;57.632;18.292;2022-11-20T16:08:35;15.48;;;11.18;;
37843;SDS011;63793;57.632;18.292;2022-11-20T16:11:02;13.23;;;11.38;;
37843;SDS011;63793;57.632;18.292;2022-11-20T16:13:30;13.68;;;11.32;;
37843;SDS011;63793;57.632;18.292;2022-11-20T16:16:23;12.70;;;11.23;;
37843;SDS011;63793;57.632;18.292;2022-11-20T16:18:54;17.40;;;12.73;;
37843;SDS011;63793;57.632;18.292;2022-11-20T16:21:21;16.77;;;11.32;;
37843;SDS011;63793;57.632;18.292;2022-11-20T16:24:03;19.40;;;10.48;;
37843;SDS011;63793;57.632;18.292;2022-11-20T16:26:32;13.90;;;11.10;;
37843;SDS011;63793;57.632;18.292;2022-11-20T16:29:00;15.15;;;10.77;;
37843;SDS011;63793;57.632;18.292;2022-11-20T16:31:29;15.93;;;11.00;;
37843;SDS011;63793;57.632;18.292;2022-11-20T16:33:57;11.85;;;9.95;;